MMTC/TRC METAR and TAF weather

Enter ICAO airport designator
Station Type Date Time Source
MMTC METAR 2022/01/29 03:40 UTC NOAA

MMTC 290340Z 09006KT 8SM BKN020 BKN100 BKN200 11/03 A3041 RMK 8/578


Station Type Date Time Source
MMTC Decoded METAR 2022/01/29 03:40 UTC NOAA

Torreon, Coah., Mexico (MMTC) 25-32N 103-27W 1150M
Jan 28, 2022 - 10:40 PM EST / 2022.01.29 0340 UTC
Wind: from the E (090 degrees) at 7 MPH (6 KT):0
Visibility: 8 mile(s):0
Sky conditions: mostly cloudy
Temperature: 51 F (11 C)
Dew Point: 37 F (3 C)
Relative Humidity: 57%
Pressure (altimeter): 30.41 in. Hg (1029 hPa)
ob: MMTC 290340Z 09006KT 8SM BKN020 BKN100 BKN200 11/03 A3041 RMK 8/578
cycle: 3

Station Type Date Time Source
MMTC TAF 2022/01/29 06:40 UTC NOAA

TAF MMTC 290532Z 2906/3006 10005KT 6SM HZ BKN015 OVC070
FM290800 08005KT 4SM HZ BKN010 OVC020
TEMPO 2911/2915 1SM BR OVC005
FM291800 08010KT 6SM HZ SCT025 BKN100
FM300300 08005KT 6SM HZ SCT015 BKN070

Example: see airport list